sensor_id;sensor_type;location;lat;lon;timestamp;temperature;humidity
74923;HTU21D;64715;44.760;37.678;2023-07-22T00:00:40;22.44;75.60
74923;HTU21D;64715;44.760;37.678;2023-07-22T00:01:41;22.43;75.69
74923;HTU21D;64715;44.760;37.678;2023-07-22T00:02:42;22.41;75.57
74923;HTU21D;64715;44.760;37.678;2023-07-22T00:03:44;22.40;75.59
74923;HTU21D;64715;44.760;37.678;2023-07-22T00:04:45;22.37;75.70
74923;HTU21D;64715;44.760;37.678;2023-07-22T00:05:46;22.37;75.77
74923;HTU21D;64715;44.760;37.678;2023-07-22T00:06:46;22.36;75.76
74923;HTU21D;64715;44.760;37.678;2023-07-22T00:07:47;22.34;75.61
74923;HTU21D;64715;44.760;37.678;2023-07-22T00:08:49;22.32;75.63
74923;HTU21D;64715;44.760;37.678;2023-07-22T00:09:51;22.32;75.65
74923;HTU21D;64715;44.760;37.678;2023-07-22T00:10:52;22.28;75.73
74923;HTU21D;64715;44.760;37.678;2023-07-22T00:11:52;22.26;75.69
74923;HTU21D;64715;44.760;37.678;2023-07-22T00:12:54;22.27;75.60
74923;HTU21D;64715;44.760;37.678;2023-07-22T00:13:55;22.24;75.60
74923;HTU21D;64715;44.760;37.678;2023-07-22T00:14:56;22.22;75.61
74923;HTU21D;64715;44.760;37.678;2023-07-22T00:15:59;22.21;75.68
74923;HTU21D;64715;44.760;37.678;2023-07-22T00:17:00;22.20;75.67
74923;HTU21D;64715;44.760;37.678;2023-07-22T00:18:01;22.17;75.51
74923;HTU21D;64715;44.760;37.678;2023-07-22T00:19:02;22.17;75.69
74923;HTU21D;64715;44.760;37.678;2023-07-22T00:20:04;22.14;75.69
74923;HTU21D;64715;44.760;37.678;2023-07-22T00:21:05;22.11;75.75
74923;HTU21D;64715;44.760;37.678;2023-07-22T00:22:08;22.10;75.78
74923;HTU21D;64715;44.760;37.678;2023-07-22T00:23:08;22.08;75.71
74923;HTU21D;64715;44.760;37.678;2023-07-22T00:24:10;22.06;75.75
74923;HTU21D;64715;44.760;37.678;2023-07-22T00:25:12;22.06;75.76
74923;HTU21D;64715;44.760;37.678;2023-07-22T00:26:13;22.02;75.78
74923;HTU21D;64715;44.760;37.678;2023-07-22T00:27:14;22.01;75.70
74923;HTU21D;64715;44.760;37.678;2023-07-22T00:28:16;21.98;75.82
74923;HTU21D;64715;44.760;37.678;2023-07-22T00:29:19;21.96;75.79
74923;HTU21D;64715;44.760;37.678;2023-07-22T00:30:20;21.95;75.70
74923;HTU21D;64715;44.760;37.678;2023-07-22T00:31:21;21.93;75.73
74923;HTU21D;64715;44.760;37.678;2023-07-22T00:32:22;21.91;75.95
74923;HTU21D;64715;44.760;37.678;2023-07-22T00:33:23;21.89;75.83
74923;HTU21D;64715;44.760;37.678;2023-07-22T00:34:24;21.89;76.00
74923;HTU21D;64715;44.760;37.678;2023-07-22T00:35:25;21.87;75.90
74923;HTU21D;64715;44.760;37.678;2023-07-22T00:36:26;21.84;75.97
74923;HTU21D;64715;44.760;37.678;2023-07-22T00:37:27;21.84;76.10
74923;HTU21D;64715;44.760;37.678;2023-07-22T00:38:28;21.82;76.16
74923;HTU21D;64715;44.760;37.678;2023-07-22T00:39:29;21.80;76.09
74923;HTU21D;64715;44.760;37.678;2023-07-22T00:40:30;21.79;76.12
74923;HTU21D;64715;44.760;37.678;2023-07-22T00:41:32;21.77;76.15
74923;HTU21D;64715;44.760;37.678;2023-07-22T00:42:33;21.76;76.24
74923;HTU21D;64715;44.760;37.678;2023-07-22T00:43:34;21.75;76.27
74923;HTU21D;64715;44.760;37.678;2023-07-22T00:44:36;21.73;76.45
74923;HTU21D;64715;44.760;37.678;2023-07-22T00:45:37;21.72;76.33
74923;HTU21D;64715;44.760;37.678;2023-07-22T00:46:39;21.69;76.30
74923;HTU21D;64715;44.760;37.678;2023-07-22T00:47:42;21.67;76.38
74923;HTU21D;64715;44.760;37.678;2023-07-22T00:48:43;21.65;76.34
74923;HTU21D;64715;44.760;37.678;2023-07-22T00:49:47;21.64;76.60
74923;HTU21D;64715;44.760;37.678;2023-07-22T00:50:49;21.63;76.44
74923;HTU21D;64715;44.760;37.678;2023-07-22T00:51:51;21.62;76.49
74923;HTU21D;64715;44.760;37.678;2023-07-22T00:52:52;21.59;76.56
74923;HTU21D;64715;44.760;37.678;2023-07-22T00:53:53;21.59;76.57
74923;HTU21D;64715;44.760;37.678;2023-07-22T00:54:55;21.59;76.59
74923;HTU21D;64715;44.760;37.678;2023-07-22T00:55:57;21.57;76.79
74923;HTU21D;64715;44.760;37.678;2023-07-22T00:56:58;21.55;76.86
74923;HTU21D;64715;44.760;37.678;2023-07-22T00:57:59;21.54;76.98
74923;HTU21D;64715;44.760;37.678;2023-07-22T00:59:00;21.52;77.02
74923;HTU21D;64715;44.760;37.678;2023-07-22T01:00:02;21.52;77.05
74923;HTU21D;64715;44.760;37.678;2023-07-22T01:01:06;21.51;77.19
74923;HTU21D;64715;44.760;37.678;2023-07-22T01:02:09;21.49;77.19
74923;HTU21D;64715;44.760;37.678;2023-07-22T01:03:10;21.49;77.31
74923;HTU21D;64715;44.760;37.678;2023-07-22T01:04:13;21.49;77.41
74923;HTU21D;64715;44.760;37.678;2023-07-22T01:05:15;21.48;77.39
74923;HTU21D;64715;44.760;37.678;2023-07-22T01:06:17;21.47;77.47
74923;HTU21D;64715;44.760;37.678;2023-07-22T01:07:19;21.47;77.44
74923;HTU21D;64715;44.760;37.678;2023-07-22T01:08:20;21.45;77.50
74923;HTU21D;64715;44.760;37.678;2023-07-22T01:09:21;21.46;77.82
74923;HTU21D;64715;44.760;37.678;2023-07-22T01:10:22;21.45;77.91
74923;HTU21D;64715;44.760;37.678;2023-07-22T01:11:23;21.47;78.02
74923;HTU21D;64715;44.760;37.678;2023-07-22T01:12:24;21.46;78.02
74923;HTU21D;64715;44.760;37.678;2023-07-22T01:13:25;21.46;78.21
74923;HTU21D;64715;44.760;37.678;2023-07-22T01:14:27;21.46;78.13
74923;HTU21D;64715;44.760;37.678;2023-07-22T01:15:28;21.47;78.25
74923;HTU21D;64715;44.760;37.678;2023-07-22T01:16:30;21.47;78.40
74923;HTU21D;64715;44.760;37.678;2023-07-22T01:17:31;21.47;78.36
74923;HTU21D;64715;44.760;37.678;2023-07-22T01:18:35;21.47;78.53
74923;HTU21D;64715;44.760;37.678;2023-07-22T01:19:36;21.48;78.53
74923;HTU21D;64715;44.760;37.678;2023-07-22T01:20:39;21.47;78.56
74923;HTU21D;64715;44.760;37.678;2023-07-22T01:21:41;21.47;78.45
74923;HTU21D;64715;44.760;37.678;2023-07-22T01:22:51;21.47;78.53
74923;HTU21D;64715;44.760;37.678;2023-07-22T01:23:53;21.47;78.30
74923;HTU21D;64715;44.760;37.678;2023-07-22T01:24:54;21.47;78.47
74923;HTU21D;64715;44.760;37.678;2023-07-22T01:25:58;21.45;78.44
74923;HTU21D;64715;44.760;37.678;2023-07-22T01:27:01;21.44;78.27
74923;HTU21D;64715;44.760;37.678;2023-07-22T01:28:09;21.45;78.41
74923;HTU21D;64715;44.760;37.678;2023-07-22T01:29:10;21.42;78.30
74923;HTU21D;64715;44.760;37.678;2023-07-22T01:30:11;21.42;78.22
74923;HTU21D;64715;44.760;37.678;2023-07-22T01:31:12;21.42;78.30
74923;HTU21D;64715;44.760;37.678;2023-07-22T01:32:13;21.40;78.25
74923;HTU21D;64715;44.760;37.678;2023-07-22T01:33:14;21.38;78.30
74923;HTU21D;64715;44.760;37.678;2023-07-22T01:34:15;21.39;78.24
74923;HTU21D;64715;44.760;37.678;2023-07-22T01:35:18;21.37;78.33
74923;HTU21D;64715;44.760;37.678;2023-07-22T01:36:19;21.36;78.40
74923;HTU21D;64715;44.760;37.678;2023-07-22T01:37:19;21.36;78.35
74923;HTU21D;64715;44.760;37.678;2023-07-22T01:38:20;21.36;78.50
74923;HTU21D;64715;44.760;37.678;2023-07-22T01:39:22;21.37;78.55
74923;HTU21D;64715;44.760;37.678;2023-07-22T01:40:25;21.35;78.50
74923;HTU21D;64715;44.760;37.678;2023-07-22T01:41:26;21.36;78.43
74923;HTU21D;64715;44.760;37.678;2023-07-22T01:42:27;21.34;78.39
74923;HTU21D;64715;44.760;37.678;2023-07-22T01:43:28;21.36;78.32
74923;HTU21D;64715;44.760;37.678;2023-07-22T01:44:29;21.33;78.23
74923;HTU21D;64715;44.760;37.678;2023-07-22T01:45:30;21.33;78.32
74923;HTU21D;64715;44.760;37.678;2023-07-22T01:46:31;21.32;78.37
74923;HTU21D;64715;44.760;37.678;2023-07-22T01:47:33;21.31;78.16
74923;HTU21D;64715;44.760;37.678;2023-07-22T01:48:35;21.29;78.21
74923;HTU21D;64715;44.760;37.678;2023-07-22T01:49:36;21.30;78.27
74923;HTU21D;64715;44.760;37.678;2023-07-22T01:50:37;21.30;78.30
74923;HTU21D;64715;44.760;37.678;2023-07-22T01:51:39;21.28;78.16
74923;HTU21D;64715;44.760;37.678;2023-07-22T01:52:42;21.27;78.28
74923;HTU21D;64715;44.760;37.678;2023-07-22T01:53:43;21.25;78.06
74923;HTU21D;64715;44.760;37.678;2023-07-22T01:54:44;21.25;78.11
74923;HTU21D;64715;44.760;37.678;2023-07-22T01:55:45;21.23;78.21
74923;HTU21D;64715;44.760;37.678;2023-07-22T01:56:46;21.22;78.24
74923;HTU21D;64715;44.760;37.678;2023-07-22T01:57:47;21.20;78.24
74923;HTU21D;64715;44.760;37.678;2023-07-22T01:58:49;21.21;78.16
74923;HTU21D;64715;44.760;37.678;2023-07-22T01:59:49;21.18;78.10
74923;HTU21D;64715;44.760;37.678;2023-07-22T02:00:51;21.18;78.21
74923;HTU21D;64715;44.760;37.678;2023-07-22T02:01:53;21.17;78.17
74923;HTU21D;64715;44.760;37.678;2023-07-22T02:02:54;21.16;78.11
74923;HTU21D;64715;44.760;37.678;2023-07-22T02:03:55;21.15;78.15
74923;HTU21D;64715;44.760;37.678;2023-07-22T02:04:57;21.13;78.05
74923;HTU21D;64715;44.760;37.678;2023-07-22T02:06:04;21.13;78.23
74923;HTU21D;64715;44.760;37.678;2023-07-22T02:07:05;21.13;77.98
74923;HTU21D;64715;44.760;37.678;2023-07-22T02:08:06;21.10;78.16
74923;HTU21D;64715;44.760;37.678;2023-07-22T02:09:07;21.10;78.28
74923;HTU21D;64715;44.760;37.678;2023-07-22T02:10:14;21.11;78.25
74923;HTU21D;64715;44.760;37.678;2023-07-22T02:11:16;21.11;78.27
74923;HTU21D;64715;44.760;37.678;2023-07-22T02:12:17;21.11;78.40
74923;HTU21D;64715;44.760;37.678;2023-07-22T02:13:18;21.13;78.30
74923;HTU21D;64715;44.760;37.678;2023-07-22T02:14:19;21.15;78.34
74923;HTU21D;64715;44.760;37.678;2023-07-22T02:15:20;21.14;78.42
74923;HTU21D;64715;44.760;37.678;2023-07-22T02:16:22;21.16;78.43
74923;HTU21D;64715;44.760;37.678;2023-07-22T02:17:23;21.16;78.19
74923;HTU21D;64715;44.760;37.678;2023-07-22T02:18:24;21.19;78.24
74923;HTU21D;64715;44.760;37.678;2023-07-22T02:19:25;21.20;78.39
74923;HTU21D;64715;44.760;37.678;2023-07-22T02:20:27;21.22;78.43
74923;HTU21D;64715;44.760;37.678;2023-07-22T02:21:30;21.24;78.23
74923;HTU21D;64715;44.760;37.678;2023-07-22T02:22:30;21.27;78.33
74923;HTU21D;64715;44.760;37.678;2023-07-22T02:23:32;21.27;78.34
74923;HTU21D;64715;44.760;37.678;2023-07-22T02:24:33;21.30;78.30
74923;HTU21D;64715;44.760;37.678;2023-07-22T02:25:34;21.32;78.40
74923;HTU21D;64715;44.760;37.678;2023-07-22T02:26:36;21.37;78.55
74923;HTU21D;64715;44.760;37.678;2023-07-22T02:27:37;21.45;78.71
74923;HTU21D;64715;44.760;37.678;2023-07-22T02:28:40;21.58;78.87
74923;HTU21D;64715;44.760;37.678;2023-07-22T02:29:41;21.72;78.92
74923;HTU21D;64715;44.760;37.678;2023-07-22T02:30:42;21.89;78.92
74923;HTU21D;64715;44.760;37.678;2023-07-22T02:31:45;22.08;78.78
74923;HTU21D;64715;44.760;37.678;2023-07-22T02:32:49;22.28;78.56
74923;HTU21D;64715;44.760;37.678;2023-07-22T02:33:50;22.49;78.28
74923;HTU21D;64715;44.760;37.678;2023-07-22T02:34:51;22.69;78.02
74923;HTU21D;64715;44.760;37.678;2023-07-22T02:35:52;22.95;77.68
74923;HTU21D;64715;44.760;37.678;2023-07-22T02:36:53;23.20;77.31
74923;HTU21D;64715;44.760;37.678;2023-07-22T02:37:54;23.43;76.93
74923;HTU21D;64715;44.760;37.678;2023-07-22T02:38:55;23.71;76.33
74923;HTU21D;64715;44.760;37.678;2023-07-22T02:39:56;23.99;75.92
74923;HTU21D;64715;44.760;37.678;2023-07-22T02:41:04;24.28;75.36
74923;HTU21D;64715;44.760;37.678;2023-07-22T02:42:07;24.57;74.63
74923;HTU21D;64715;44.760;37.678;2023-07-22T02:43:08;24.85;74.08
74923;HTU21D;64715;44.760;37.678;2023-07-22T02:44:09;25.13;73.51
74923;HTU21D;64715;44.760;37.678;2023-07-22T02:45:10;25.42;72.84
74923;HTU21D;64715;44.760;37.678;2023-07-22T02:46:11;25.69;72.16
74923;HTU21D;64715;44.760;37.678;2023-07-22T02:47:12;25.98;71.45
74923;HTU21D;64715;44.760;37.678;2023-07-22T02:48:14;26.25;70.69
74923;HTU21D;64715;44.760;37.678;2023-07-22T02:49:15;26.51;70.10
74923;HTU21D;64715;44.760;37.678;2023-07-22T02:50:16;26.78;69.33
74923;HTU21D;64715;44.760;37.678;2023-07-22T02:51:17;27.07;68.86
74923;HTU21D;64715;44.760;37.678;2023-07-22T02:52:18;27.34;67.98
74923;HTU21D;64715;44.760;37.678;2023-07-22T02:53:19;27.60;67.37
74923;HTU21D;64715;44.760;37.678;2023-07-22T02:54:20;27.87;66.35
74923;HTU21D;64715;44.760;37.678;2023-07-22T02:55:21;28.13;65.41
74923;HTU21D;64715;44.760;37.678;2023-07-22T02:56:23;28.39;64.72
74923;HTU21D;64715;44.760;37.678;2023-07-22T02:57:24;28.64;63.98
74923;HTU21D;64715;44.760;37.678;2023-07-22T02:58:26;28.88;63.41
74923;HTU21D;64715;44.760;37.678;2023-07-22T02:59:26;29.14;62.62
74923;HTU21D;64715;44.760;37.678;2023-07-22T03:00:27;29.42;61.91
74923;HTU21D;64715;44.760;37.678;2023-07-22T03:01:28;29.68;61.02
74923;HTU21D;64715;44.760;37.678;2023-07-22T03:02:30;29.94;60.48
74923;HTU21D;64715;44.760;37.678;2023-07-22T03:03:31;30.20;59.79
74923;HTU21D;64715;44.760;37.678;2023-07-22T03:04:35;30.48;58.99
74923;HTU21D;64715;44.760;37.678;2023-07-22T03:05:36;30.75;58.28
74923;HTU21D;64715;44.760;37.678;2023-07-22T03:06:37;31.01;57.55
74923;HTU21D;64715;44.760;37.678;2023-07-22T03:07:38;31.29;56.84
74923;HTU21D;64715;44.760;37.678;2023-07-22T03:08:39;31.57;56.15
74923;HTU21D;64715;44.760;37.678;2023-07-22T03:09:40;31.84;55.32
74923;HTU21D;64715;44.760;37.678;2023-07-22T03:10:42;32.11;54.66
74923;HTU21D;64715;44.760;37.678;2023-07-22T03:11:48;32.40;53.97
74923;HTU21D;64715;44.760;37.678;2023-07-22T03:12:51;32.67;53.20
74923;HTU21D;64715;44.760;37.678;2023-07-22T03:13:55;32.94;52.40
74923;HTU21D;64715;44.760;37.678;2023-07-22T03:14:56;33.18;51.68
74923;HTU21D;64715;44.760;37.678;2023-07-22T03:15:58;33.44;50.95
74923;HTU21D;64715;44.760;37.678;2023-07-22T03:16:59;33.70;50.21
74923;HTU21D;64715;44.760;37.678;2023-07-22T03:18:00;33.92;49.61
74923;HTU21D;64715;44.760;37.678;2023-07-22T03:19:01;34.17;48.92
74923;HTU21D;64715;44.760;37.678;2023-07-22T03:20:03;34.39;48.23
74923;HTU21D;64715;44.760;37.678;2023-07-22T03:21:15;34.68;47.63
74923;HTU21D;64715;44.760;37.678;2023-07-22T03:22:16;34.90;46.81
74923;HTU21D;64715;44.760;37.678;2023-07-22T03:23:17;35.09;46.22
74923;HTU21D;64715;44.760;37.678;2023-07-22T03:24:18;35.28;45.57
74923;HTU21D;64715;44.760;37.678;2023-07-22T03:25:20;35.43;45.03
74923;HTU21D;64715;44.760;37.678;2023-07-22T03:26:21;35.54;44.62
74923;HTU21D;64715;44.760;37.678;2023-07-22T03:27:22;35.65;44.26
74923;HTU21D;64715;44.760;37.678;2023-07-22T03:28:23;35.77;43.81
74923;HTU21D;64715;44.760;37.678;2023-07-22T03:29:24;35.88;43.41
74923;HTU21D;64715;44.760;37.678;2023-07-22T03:30:25;35.98;43.17
74923;HTU21D;64715;44.760;37.678;2023-07-22T03:31:26;36.09;42.92
74923;HTU21D;64715;44.760;37.678;2023-07-22T03:32:27;36.21;42.48
74923;HTU21D;64715;44.760;37.678;2023-07-22T03:33:28;36.32;42.19
74923;HTU21D;64715;44.760;37.678;2023-07-22T03:34:30;36.43;41.96
74923;HTU21D;64715;44.760;37.678;2023-07-22T03:35:33;36.57;41.62
74923;HTU21D;64715;44.760;37.678;2023-07-22T03:36:34;36.72;41.42
74923;HTU21D;64715;44.760;37.678;2023-07-22T03:37:35;36.88;41.14
74923;HTU21D;64715;44.760;37.678;2023-07-22T03:38:37;37.07;40.91
74923;HTU21D;64715;44.760;37.678;2023-07-22T03:39:38;37.26;40.51
74923;HTU21D;64715;44.760;37.678;2023-07-22T03:40:39;37.45;40.07
74923;HTU21D;64715;44.760;37.678;2023-07-22T03:41:40;37.65;39.46
74923;HTU21D;64715;44.760;37.678;2023-07-22T03:42:41;37.85;39.02
74923;HTU21D;64715;44.760;37.678;2023-07-22T03:43:42;38.03;38.43
74923;HTU21D;64715;44.760;37.678;2023-07-22T03:44:44;38.19;38.01
74923;HTU21D;64715;44.760;37.678;2023-07-22T03:45:45;38.25;37.69
74923;HTU21D;64715;44.760;37.678;2023-07-22T03:46:46;38.33;37.38
74923;HTU21D;64715;44.760;37.678;2023-07-22T03:47:51;38.39;37.21
74923;HTU21D;64715;44.760;37.678;2023-07-22T03:48:53;38.48;36.95
74923;HTU21D;64715;44.760;37.678;2023-07-22T03:49:54;38.52;36.71
74923;HTU21D;64715;44.760;37.678;2023-07-22T03:50:55;38.54;36.56
74923;HTU21D;64715;44.760;37.678;2023-07-22T03:51:56;38.56;36.47
74923;HTU21D;64715;44.760;37.678;2023-07-22T03:52:57;38.59;36.09
74923;HTU21D;64715;44.760;37.678;2023-07-22T03:54:00;38.62;36.08
74923;HTU21D;64715;44.760;37.678;2023-07-22T03:55:01;38.69;35.86
74923;HTU21D;64715;44.760;37.678;2023-07-22T03:56:02;38.76;35.82
74923;HTU21D;64715;44.760;37.678;2023-07-22T03:57:03;38.85;35.43
74923;HTU21D;64715;44.760;37.678;2023-07-22T03:58:05;38.94;35.24
74923;HTU21D;64715;44.760;37.678;2023-07-22T03:59:06;39.10;35.02
74923;HTU21D;64715;44.760;37.678;2023-07-22T04:00:07;39.26;34.89
74923;HTU21D;64715;44.760;37.678;2023-07-22T04:01:15;39.44;34.60
74923;HTU21D;64715;44.760;37.678;2023-07-22T04:02:15;39.61;34.37
74923;HTU21D;64715;44.760;37.678;2023-07-22T04:03:17;39.79;33.82
74923;HTU21D;64715;44.760;37.678;2023-07-22T04:04:18;39.96;33.52
74923;HTU21D;64715;44.760;37.678;2023-07-22T04:05:19;40.14;33.48
74923;HTU21D;64715;44.760;37.678;2023-07-22T04:06:20;40.36;33.13
74923;HTU21D;64715;44.760;37.678;2023-07-22T04:07:22;40.58;32.70
74923;HTU21D;64715;44.760;37.678;2023-07-22T04:08:23;40.83;32.30
74923;HTU21D;64715;44.760;37.678;2023-07-22T04:09:24;41.06;31.79
74923;HTU21D;64715;44.760;37.678;2023-07-22T04:10:25;41.28;31.25
74923;HTU21D;64715;44.760;37.678;2023-07-22T04:11:26;41.49;30.45
74923;HTU21D;64715;44.760;37.678;2023-07-22T04:12:28;41.62;30.11
74923;HTU21D;64715;44.760;37.678;2023-07-22T04:13:29;41.67;30.15
74923;HTU21D;64715;44.760;37.678;2023-07-22T04:14:30;41.74;29.93
74923;HTU21D;64715;44.760;37.678;2023-07-22T04:15:33;41.83;29.39
74923;HTU21D;64715;44.760;37.678;2023-07-22T04:16:35;41.89;29.03
74923;HTU21D;64715;44.760;37.678;2023-07-22T04:17:36;41.96;28.73
74923;HTU21D;64715;44.760;37.678;2023-07-22T04:18:37;42.00;28.29
74923;HTU21D;64715;44.760;37.678;2023-07-22T04:19:38;42.03;27.82
74923;HTU21D;64715;44.760;37.678;2023-07-22T04:20:39;42.05;27.74
74923;HTU21D;64715;44.760;37.678;2023-07-22T04:21:40;42.16;27.77
74923;HTU21D;64715;44.760;37.678;2023-07-22T04:22:42;42.29;27.82
74923;HTU21D;64715;44.760;37.678;2023-07-22T04:23:43;42.44;27.57
74923;HTU21D;64715;44.760;37.678;2023-07-22T04:24:44;42.54;27.47
74923;HTU21D;64715;44.760;37.678;2023-07-22T04:25:45;42.62;27.23
74923;HTU21D;64715;44.760;37.678;2023-07-22T04:26:46;42.68;27.07
74923;HTU21D;64715;44.760;37.678;2023-07-22T04:27:47;42.75;27.15
74923;HTU21D;64715;44.760;37.678;2023-07-22T04:28:48;42.84;26.77
74923;HTU21D;64715;44.760;37.678;2023-07-22T04:29:49;42.95;26.52
74923;HTU21D;64715;44.760;37.678;2023-07-22T04:30:58;43.03;26.20
74923;HTU21D;64715;44.760;37.678;2023-07-22T04:32:01;43.06;25.98
74923;HTU21D;64715;44.760;37.678;2023-07-22T04:33:02;43.09;26.03
74923;HTU21D;64715;44.760;37.678;2023-07-22T04:34:04;43.16;25.65
74923;HTU21D;64715;44.760;37.678;2023-07-22T04:35:08;43.21;25.74
74923;HTU21D;64715;44.760;37.678;2023-07-22T04:36:10;43.33;25.81
74923;HTU21D;64715;44.760;37.678;2023-07-22T04:37:11;43.48;25.51
74923;HTU21D;64715;44.760;37.678;2023-07-22T04:38:13;43.62;25.03
74923;HTU21D;64715;44.760;37.678;2023-07-22T04:39:14;43.74;24.54
74923;HTU21D;64715;44.760;37.678;2023-07-22T04:40:15;43.82;23.99
74923;HTU21D;64715;44.760;37.678;2023-07-22T04:41:18;43.87;23.80
74923;HTU21D;64715;44.760;37.678;2023-07-22T04:42:20;43.91;23.85
74923;HTU21D;64715;44.760;37.678;2023-07-22T04:43:21;43.94;23.84
74923;HTU21D;64715;44.760;37.678;2023-07-22T04:44:22;44.01;23.93
74923;HTU21D;64715;44.760;37.678;2023-07-22T04:45:24;44.15;23.72
74923;HTU21D;64715;44.760;37.678;2023-07-22T04:46:26;44.26;23.40
74923;HTU21D;64715;44.760;37.678;2023-07-22T04:47:26;44.31;23.44
74923;HTU21D;64715;44.760;37.678;2023-07-22T04:48:29;44.39;23.40
74923;HTU21D;64715;44.760;37.678;2023-07-22T04:49:32;44.46;23.17
74923;HTU21D;64715;44.760;37.678;2023-07-22T04:50:33;44.53;22.95
74923;HTU21D;64715;44.760;37.678;2023-07-22T04:51:34;44.65;22.92
74923;HTU21D;64715;44.760;37.678;2023-07-22T04:52:36;44.79;22.75
74923;HTU21D;64715;44.760;37.678;2023-07-22T04:53:37;44.90;22.33
74923;HTU21D;64715;44.760;37.678;2023-07-22T04:54:38;44.88;22.08
74923;HTU21D;64715;44.760;37.678;2023-07-22T04:55:40;44.72;22.24
74923;HTU21D;64715;44.760;37.678;2023-07-22T04:56:41;44.66;22.34
74923;HTU21D;64715;44.760;37.678;2023-07-22T04:57:42;44.66;22.18
74923;HTU21D;64715;44.760;37.678;2023-07-22T04:58:45;44.66;22.31
74923;HTU21D;64715;44.760;37.678;2023-07-22T04:59:46;44.62;22.24
74923;HTU21D;64715;44.760;37.678;2023-07-22T05:00:47;44.54;22.58
74923;HTU21D;64715;44.760;37.678;2023-07-22T05:01:52;44.55;22.39
74923;HTU21D;64715;44.760;37.678;2023-07-22T05:02:53;44.58;22.27
74923;HTU21D;64715;44.760;37.678;2023-07-22T05:03:56;44.65;22.02
74923;HTU21D;64715;44.760;37.678;2023-07-22T05:04:58;44.62;21.91
74923;HTU21D;64715;44.760;37.678;2023-07-22T05:05:59;44.60;21.79
74923;HTU21D;64715;44.760;37.678;2023-07-22T05:07:00;44.48;22.01
74923;HTU21D;64715;44.760;37.678;2023-07-22T05:08:01;44.41;22.10
74923;HTU21D;64715;44.760;37.678;2023-07-22T05:09:02;44.41;22.23
74923;HTU21D;64715;44.760;37.678;2023-07-22T05:10:06;44.30;22.14
74923;HTU21D;64715;44.760;37.678;2023-07-22T05:11:08;44.10;22.42
74923;HTU21D;64715;44.760;37.678;2023-07-22T05:12:08;44.00;22.62
74923;HTU21D;64715;44.760;37.678;2023-07-22T05:13:10;44.00;22.61
74923;HTU21D;64715;44.760;37.678;2023-07-22T05:14:11;44.03;22.48
74923;HTU21D;64715;44.760;37.678;2023-07-22T05:15:12;44.00;22.30
74923;HTU21D;64715;44.760;37.678;2023-07-22T05:16:14;43.80;22.37
74923;HTU21D;64715;44.760;37.678;2023-07-22T05:17:15;43.55;22.82
74923;HTU21D;64715;44.760;37.678;2023-07-22T05:18:16;43.39;23.01
74923;HTU21D;64715;44.760;37.678;2023-07-22T05:19:17;43.31;23.16
74923;HTU21D;64715;44.760;37.678;2023-07-22T05:20:19;43.18;23.30
74923;HTU21D;64715;44.760;37.678;2023-07-22T05:21:20;43.07;23.52
74923;HTU21D;64715;44.760;37.678;2023-07-22T05:22:21;43.00;23.84
74923;HTU21D;64715;44.760;37.678;2023-07-22T05:23:22;43.02;23.85
74923;HTU21D;64715;44.760;37.678;2023-07-22T05:24:23;43.11;23.88
74923;HTU21D;64715;44.760;37.678;2023-07-22T05:25:24;43.19;23.75
74923;HTU21D;64715;44.760;37.678;2023-07-22T05:26:25;43.21;23.75
74923;HTU21D;64715;44.760;37.678;2023-07-22T05:27:26;43.17;23.63
74923;HTU21D;64715;44.760;37.678;2023-07-22T05:28:27;43.02;23.62
74923;HTU21D;64715;44.760;37.678;2023-07-22T05:29:28;42.85;23.65
74923;HTU21D;64715;44.760;37.678;2023-07-22T05:30:29;42.73;23.82
74923;HTU21D;64715;44.760;37.678;2023-07-22T05:31:30;42.58;24.01
74923;HTU21D;64715;44.760;37.678;2023-07-22T05:32:31;42.41;24.36
74923;HTU21D;64715;44.760;37.678;2023-07-22T05:33:32;42.37;24.43
74923;HTU21D;64715;44.760;37.678;2023-07-22T05:34:33;42.38;24.30
74923;HTU21D;64715;44.760;37.678;2023-07-22T05:35:34;42.30;24.32
74923;HTU21D;64715;44.760;37.678;2023-07-22T05:36:35;42.13;24.38
74923;HTU21D;64715;44.760;37.678;2023-07-22T05:37:36;41.94;24.62
74923;HTU21D;64715;44.760;37.678;2023-07-22T05:38:38;41.81;24.75
74923;HTU21D;64715;44.760;37.678;2023-07-22T05:39:41;41.74;24.99
74923;HTU21D;64715;44.760;37.678;2023-07-22T05:40:41;41.72;25.15
74923;HTU21D;64715;44.760;37.678;2023-07-22T05:41:43;41.72;25.12
74923;HTU21D;64715;44.760;37.678;2023-07-22T05:42:44;41.63;25.20
74923;HTU21D;64715;44.760;37.678;2023-07-22T05:43:45;41.52;25.36
74923;HTU21D;64715;44.760;37.678;2023-07-22T05:44:47;41.35;25.36
74923;HTU21D;64715;44.760;37.678;2023-07-22T05:45:48;41.12;25.60
74923;HTU21D;64715;44.760;37.678;2023-07-22T05:46:49;40.89;25.91
74923;HTU21D;64715;44.760;37.678;2023-07-22T05:47:50;40.74;26.22
74923;HTU21D;64715;44.760;37.678;2023-07-22T05:48:51;40.55;26.37
74923;HTU21D;64715;44.760;37.678;2023-07-22T05:49:52;40.28;26.68
74923;HTU21D;64715;44.760;37.678;2023-07-22T05:50:53;39.99;26.91
74923;HTU21D;64715;44.760;37.678;2023-07-22T05:51:54;39.69;27.17
74923;HTU21D;64715;44.760;37.678;2023-07-22T05:52:55;39.41;27.41
74923;HTU21D;64715;44.760;37.678;2023-07-22T05:53:56;39.17;28.07
74923;HTU21D;64715;44.760;37.678;2023-07-22T05:54:58;38.99;28.61
74923;HTU21D;64715;44.760;37.678;2023-07-22T05:55:59;38.88;29.01
74923;HTU21D;64715;44.760;37.678;2023-07-22T05:57:00;38.81;29.25
74923;HTU21D;64715;44.760;37.678;2023-07-22T05:58:02;38.76;29.24
74923;HTU21D;64715;44.760;37.678;2023-07-22T05:59:06;38.74;29.82
74923;HTU21D;64715;44.760;37.678;2023-07-22T06:00:07;38.75;29.53
74923;HTU21D;64715;44.760;37.678;2023-07-22T06:01:15;38.74;29.48
74923;HTU21D;64715;44.760;37.678;2023-07-22T06:02:17;38.71;29.42
74923;HTU21D;64715;44.760;37.678;2023-07-22T06:03:19;38.66;29.32
74923;HTU21D;64715;44.760;37.678;2023-07-22T06:04:21;38.63;29.21
74923;HTU21D;64715;44.760;37.678;2023-07-22T06:05:22;38.54;29.60
74923;HTU21D;64715;44.760;37.678;2023-07-22T06:06:23;38.48;29.72
74923;HTU21D;64715;44.760;37.678;2023-07-22T06:07:24;38.44;29.83
74923;HTU21D;64715;44.760;37.678;2023-07-22T06:08:26;38.36;29.86
74923;HTU21D;64715;44.760;37.678;2023-07-22T06:09:27;38.32;29.90
74923;HTU21D;64715;44.760;37.678;2023-07-22T06:10:28;38.22;30.06
74923;HTU21D;64715;44.760;37.678;2023-07-22T06:11:29;38.08;30.17
74923;HTU21D;64715;44.760;37.678;2023-07-22T06:12:30;37.96;30.38
74923;HTU21D;64715;44.760;37.678;2023-07-22T06:13:31;37.84;30.80
74923;HTU21D;64715;44.760;37.678;2023-07-22T06:14:32;37.76;31.00
74923;HTU21D;64715;44.760;37.678;2023-07-22T06:15:33;37.69;30.88
74923;HTU21D;64715;44.760;37.678;2023-07-22T06:16:34;37.58;30.92
74923;HTU21D;64715;44.760;37.678;2023-07-22T06:17:35;37.44;30.97